地図

経路データ

SID SEASON NUMBER BASIN SUBBASIN NAME ISO_TIME NATURE LAT LON WMO_WIND WMO_PRES WMO_AGENCY TRACK_TYPE DIST2LAND LANDFALL IFLAG USA_AGENCY USA_ATCF_ID USA_LAT USA_LON USA_RECORD USA_STATUS USA_WIND USA_PRES USA_SSHS USA_R34_NE USA_R34_SE USA_R34_SW USA_R34_NW USA_R50_NE USA_R50_SE USA_R50_SW USA_R50_NW USA_R64_NE USA_R64_SE USA_R64_SW USA_R64_NW USA_POCI USA_ROCI USA_RMW USA_EYE TOKYO_LAT TOKYO_LON TOKYO_GRADE TOKYO_WIND TOKYO_PRES TOKYO_R50_DIR TOKYO_R50_LONG TOKYO_R50_SHORT TOKYO_R30_DIR TOKYO_R30_LONG TOKYO_R30_SHORT TOKYO_LAND CMA_LAT CMA_LON CMA_CAT CMA_WIND CMA_PRES HKO_LAT HKO_LON HKO_CAT HKO_WIND HKO_PRES NEWDELHI_LAT NEWDELHI_LON NEWDELHI_GRADE NEWDELHI_WIND NEWDELHI_PRES NEWDELHI_CI NEWDELHI_DP NEWDELHI_POCI REUNION_LAT REUNION_LON REUNION_TYPE REUNION_WIND REUNION_PRES REUNION_TNUM REUNION_CI REUNION_RMW REUNION_R34_NE REUNION_R34_SE REUNION_R34_SW REUNION_R34_NW REUNION_R50_NE REUNION_R50_SE REUNION_R50_SW REUNION_R50_NW REUNION_R64_NE REUNION_R64_SE REUNION_R64_SW REUNION_R64_NW BOM_LAT BOM_LON BOM_TYPE BOM_WIND BOM_PRES BOM_TNUM BOM_CI BOM_RMW BOM_R34_NE BOM_R34_SE BOM_R34_SW BOM_R34_NW BOM_R50_NE BOM_R50_SE BOM_R50_SW BOM_R50_NW BOM_R64_NE BOM_R64_SE BOM_R64_SW BOM_R64_NW BOM_ROCI BOM_POCI BOM_EYE BOM_POS_METHOD BOM_PRES_METHOD NADI_LAT NADI_LON NADI_CAT NADI_WIND NADI_PRES WELLINGTON_LAT WELLINGTON_LON WELLINGTON_WIND WELLINGTON_PRES DS824_LAT DS824_LON DS824_STAGE DS824_WIND DS824_PRES TD9636_LAT TD9636_LON TD9636_STAGE TD9636_WIND TD9636_PRES TD9635_LAT TD9635_LON TD9635_WIND TD9635_PRES TD9635_ROCI NEUMANN_LAT NEUMANN_LON NEUMANN_CLASS NEUMANN_WIND NEUMANN_PRES MLC_LAT MLC_LON MLC_CLASS MLC_WIND MLC_PRES USA_GUST BOM_GUST BOM_GUST_PER REUNION_GUST REUNION_GUST_PER USA_SEAHGT USA_SEARAD_NE USA_SEARAD_SE USA_SEARAD_SW USA_SEARAD_NW STORM_SPEED STORM_DIR
1981247N16300 1981 75 NA CS FLOYD 1981-09-03 12:00:00 TS 16.2000 -60.3000 20 1010 hurdat_atl main 605 557 O_____________ hurdat_atl AL141981 16.2000 -60.3000 TD 20 1010 -1 9 302
1981247N16300 1981 75 NA CS FLOYD 1981-09-03 15:00:00 TS 16.4426 -60.6973 main 557 506 P_____________ AL141981 16.4426 -60.6973 TD 20 1010 -1 9 303
1981247N16300 1981 75 NA CS FLOYD 1981-09-03 18:00:00 TS 16.7000 -61.1000 20 1010 hurdat_atl main 506 454 O_____________ hurdat_atl AL141981 16.7000 -61.1000 TD 20 1010 -1 9 305
1981247N16300 1981 75 NA CS FLOYD 1981-09-03 21:00:00 TS 16.9850 -61.5076 main 454 404 P_____________ AL141981 16.9850 -61.5076 TD 20 1009 -1 10 308
1981247N16300 1981 75 NA CS FLOYD 1981-09-04 00:00:00 TS 17.3000 -61.9000 20 1009 hurdat_atl main 404 366 O_____________ hurdat_atl AL141981 17.3000 -61.9000 TD 20 1009 -1 10 313
1981247N16300 1981 75 NA CS FLOYD 1981-09-04 03:00:00 TS 17.6499 -62.2576 main 355 317 P_____________ AL141981 17.6499 -62.2576 TD 20 1008 -1 10 316
1981247N16300 1981 75 NA CS FLOYD 1981-09-04 06:00:00 TS 18.0000 -62.6000 20 1008 hurdat_atl main 317 285 O_____________ hurdat_atl AL141981 18.0000 -62.6000 TD 20 1008 -1 9 316
1981247N16300 1981 75 NA CS FLOYD 1981-09-04 09:00:00 TS 18.3224 -62.9501 main 274 243 P_____________ AL141981 18.3224 -62.9501 TD 25 1007 -1 9 312
1981247N16300 1981 75 NA CS FLOYD 1981-09-04 12:00:00 TS 18.6000 -63.3000 30 1006 hurdat_atl main 243 215 O_____________ hurdat_atl AL141981 18.6000 -63.3000 TD 30 1006 -1 8 306
1981247N16300 1981 75 NA CS FLOYD 1981-09-04 15:00:00 TS 18.8074 -63.6502 main 205 181 P_____________ AL141981 18.8074 -63.6502 TD 32 1005 -1 8 301
1981247N16300 1981 75 NA NA FLOYD 1981-09-04 18:00:00 TS 19.0000 -64.0000 35 1004 hurdat_atl main 181 163 O_____________ hurdat_atl AL141981 19.0000 -64.0000 TS 35 1004 0 8 303
1981247N16300 1981 75 NA NA FLOYD 1981-09-04 21:00:00 TS 19.2349 -64.3427 main 163 153 P_____________ AL141981 19.2349 -64.3427 TS 40 1003 0 8 307
1981247N16300 1981 75 NA NA FLOYD 1981-09-05 00:00:00 TS 19.5000 -64.7000 45 1002 hurdat_atl main 155 149 O_____________ hurdat_atl AL141981 19.5000 -64.7000 TS 45 1002 0 9 307
1981247N16300 1981 75 NA NA FLOYD 1981-09-05 03:00:00 TS 19.7775 -65.1001 main 165 162 P_____________ AL141981 19.7775 -65.1001 TS 47 1001 0 10 309
1981247N16300 1981 75 NA NA FLOYD 1981-09-05 06:00:00 TS 20.1000 -65.5000 50 1000 hurdat_atl main 190 190 O_____________ hurdat_atl AL141981 20.1000 -65.5000 TS 50 1000 0 10 315
1981247N16300 1981 75 NA NA FLOYD 1981-09-05 09:00:00 TS 20.4848 -65.8428 main 234 234 P_____________ AL141981 20.4848 -65.8428 TS 55 999 0 10 321
1981247N16300 1981 75 NA NA FLOYD 1981-09-05 12:00:00 TS 20.9000 -66.2000 60 999 hurdat_atl main 279 279 O_____________ hurdat_atl AL141981 20.9000 -66.2000 TS 60 999 0 11 317
1981247N16300 1981 75 NA NA FLOYD 1981-09-05 15:00:00 TS 21.2927 -66.6575 main 324 324 P_____________ AL141981 21.2927 -66.6575 TS 65 998 1 12 314
1981247N16300 1981 75 NA NA FLOYD 1981-09-05 18:00:00 TS 21.7000 -67.1000 70 997 hurdat_atl main 352 352 O_____________ hurdat_atl AL141981 21.7000 -67.1000 HU 70 997 1 11 321
1981247N16300 1981 75 NA NA FLOYD 1981-09-05 21:00:00 TS 22.1347 -67.4006 main 370 370 P_____________ AL141981 22.1347 -67.4006 HU 75 995 1 11 328
1981247N16300 1981 75 NA NA FLOYD 1981-09-06 00:00:00 TS 22.6000 -67.7000 80 994 hurdat_atl main 404 404 O_____________ hurdat_atl AL141981 22.6000 -67.7000 HU 80 994 1 12 324
1981247N16300 1981 75 NA NA FLOYD 1981-09-06 03:00:00 TS 23.1003 -68.1571 main 433 433 P_____________ AL141981 23.1003 -68.1571 HU 82 992 1 13 320
1981247N16300 1981 75 NA NA FLOYD 1981-09-06 06:00:00 TS 23.6000 -68.6000 85 991 hurdat_atl main 470 470 O_____________ hurdat_atl AL141981 23.6000 -68.6000 HU 85 991 2 12 324
1981247N16300 1981 75 NA NA FLOYD 1981-09-06 09:00:00 TS 24.0499 -68.9176 main 501 501 P_____________ AL141981 24.0499 -68.9176 HU 87 989 2 10 333
1981247N16300 1981 75 NA NA FLOYD 1981-09-06 12:00:00 TS 24.5000 -69.1000 90 988 hurdat_atl main 543 543 O_____________ hurdat_atl AL141981 24.5000 -69.1000 HU 90 988 2 10 348
1981247N16300 1981 75 NA NA FLOYD 1981-09-06 15:00:00 TS 24.9999 -69.1379 main 582 582 P_____________ AL141981 24.9999 -69.1379 HU 92 986 2 10 1
1981247N16300 1981 75 NA NA FLOYD 1981-09-06 18:00:00 TS 25.5000 -69.1000 95 985 hurdat_atl main 623 623 O_____________ hurdat_atl AL141981 25.5000 -69.1000 HU 95 985 2 9 2
1981247N16300 1981 75 NA NA FLOYD 1981-09-06 21:00:00 TS 25.9425 -69.1148 main 658 658 P_____________ AL141981 25.9425 -69.1148 HU 97 983 3 9 0
1981247N16300 1981 75 NA NA FLOYD 1981-09-07 00:00:00 TS 26.4000 -69.1000 100 981 hurdat_atl main 703 703 O_____________ hurdat_atl AL141981 26.4000 -69.1000 HU 100 981 3 10 4
1981247N16300 1981 75 NA NA FLOYD 1981-09-07 03:00:00 TS 26.9500 -69.0300 main 755 755 P_____________ AL141981 26.9500 -69.0300 HU 100 979 3 11 9
1981247N16300 1981 75 NA NA FLOYD 1981-09-07 06:00:00 TS 27.5000 -68.9000 100 978 hurdat_atl main 817 817 O_____________ hurdat_atl AL141981 27.5000 -68.9000 HU 100 978 3 11 14
1981247N16300 1981 75 NA NA FLOYD 1981-09-07 09:00:00 TS 27.9649 -68.7372 main 875 875 P_____________ AL141981 27.9649 -68.7372 HU 100 976 3 10 21
1981247N16300 1981 75 NA NA FLOYD 1981-09-07 12:00:00 TS 28.4000 -68.5000 100 975 hurdat_atl main 923 923 O_____________ hurdat_atl AL141981 28.4000 -68.5000 HU 100 975 3 10 29
1981247N16300 1981 75 NA NA FLOYD 1981-09-07 15:00:00 TS 28.8726 -68.1653 main 986 986 P_____________ AL141981 28.8726 -68.1653 HU 100 975 3 11 34
1981247N16300 1981 75 NA NA FLOYD 1981-09-07 18:00:00 TS 29.3000 -67.8000 100 975 hurdat_atl main 1013 1006 O_____________ hurdat_atl AL141981 29.3000 -67.8000 HU 100 975 3 9 38
1981247N16300 1981 75 NA NA FLOYD 1981-09-07 21:00:00 TS 29.6148 -67.4994 main 1015 1007 P_____________ AL141981 29.6148 -67.4994 HU 97 982 3 8 41
1981247N16300 1981 75 NA NA FLOYD 1981-09-08 00:00:00 TS 29.9000 -67.2000 95 989 hurdat_atl main 1015 1014 O_____________ hurdat_atl AL141981 29.9000 -67.2000 HU 95 989 2 8 41
1981247N16300 1981 75 NA NA FLOYD 1981-09-08 03:00:00 TS 30.2348 -66.8721 main 1014 1007 P_____________ AL141981 30.2348 -66.8721 HU 92 992 2 9 41
1981247N16300 1981 75 NA NA FLOYD 1981-09-08 06:00:00 TS 30.6000 -66.5000 90 995 hurdat_atl main 1016 1016 O_____________ hurdat_atl AL141981 30.6000 -66.5000 HU 90 995 2 10 42
1981247N16300 1981 75 NA NA FLOYD 1981-09-08 09:00:00 TS 31.0075 -66.0651 main 1021 1021 P_____________ AL141981 31.0075 -66.0651 HU 87 996 2 11 44
1981247N16300 1981 75 NA NA FLOYD 1981-09-08 12:00:00 TS 31.4000 -65.6000 85 998 hurdat_atl main 1037 1037 O_____________ hurdat_atl AL141981 31.4000 -65.6000 HU 85 998 2 10 47
1981247N16300 1981 75 NA NA FLOYD 1981-09-08 15:00:00 TS 31.6915 -65.2083 main 1053 1053 P_____________ AL141981 31.6915 -65.2083 HU 72 1000 1 10 52
1981247N16300 1981 75 NA NA FLOYD 1981-09-08 18:00:00 TS 32.0000 -64.7000 60 1003 hurdat_atl main 1080 1080 O_____________ hurdat_atl AL141981 32.0000 -64.7000 TS 60 1003 0 13 55
1981247N16300 1981 75 NA NA FLOYD 1981-09-08 21:00:00 TS 32.4344 -63.9549 main 1121 1121 P_____________ AL141981 32.4344 -63.9549 TS 55 1004 0 17 58
1981247N16300 1981 75 NA NA FLOYD 1981-09-09 00:00:00 TS 32.9000 -63.0000 50 1005 hurdat_atl main 1157 1152 O_____________ hurdat_atl AL141981 32.9000 -63.0000 TS 50 1005 0 20 63
1981247N16300 1981 75 NA NA FLOYD 1981-09-09 03:00:00 TS 33.3303 -61.8878 main 1173 1157 P_____________ AL141981 33.3303 -61.8878 TS 47 1006 0 21 67
1981247N16300 1981 75 NA NA FLOYD 1981-09-09 06:00:00 TS 33.7000 -60.7000 45 1007 hurdat_atl main 1161 1155 O_____________ hurdat_atl AL141981 33.7000 -60.7000 TS 45 1007 0 20 70
1981247N16300 1981 75 NA NA FLOYD 1981-09-09 09:00:00 TS 34.0388 -59.5936 main 1166 1159 P_____________ AL141981 34.0388 -59.5936 TS 45 1007 0 19 75
1981247N16300 1981 75 NA NA FLOYD 1981-09-09 12:00:00 TS 34.2000 -58.5000 45 1007 hurdat_atl main 1189 1189 O_____________ hurdat_atl AL141981 34.2000 -58.5000 TS 45 1007 0 18 89
1981247N16300 1981 75 NA NA FLOYD 1981-09-09 15:00:00 TS 34.0588 -57.4051 main 1248 1248 P_____________ AL141981 34.0588 -57.4051 TS 42 1007 0 19 102
1981247N16300 1981 75 NA NA FLOYD 1981-09-09 18:00:00 TS 33.8000 -56.3000 40 1007 hurdat_atl main 1330 1330 O_____________ hurdat_atl AL141981 33.8000 -56.3000 TS 40 1007 0 19 104
1981247N16300 1981 75 NA NA FLOYD 1981-09-09 21:00:00 TS 33.6108 -55.1869 main 1385 1385 P_____________ AL141981 33.6108 -55.1869 TS 40 1007 0 19 99
1981247N16300 1981 75 NA NA FLOYD 1981-09-10 00:00:00 TS 33.5000 -54.0000 40 1007 hurdat_atl main 1436 1436 O_____________ hurdat_atl AL141981 33.5000 -54.0000 TS 40 1007 0 21 93
1981247N16300 1981 75 NA NA FLOYD 1981-09-10 03:00:00 TS 33.4972 -52.6726 main 1458 1451 P_____________ AL141981 33.4972 -52.6726 TS 40 1007 0 23 87
1981247N16300 1981 75 NA NA FLOYD 1981-09-10 06:00:00 TS 33.6000 -51.3000 40 1007 hurdat_atl main 1455 1445 O_____________ hurdat_atl AL141981 33.6000 -51.3000 TS 40 1007 0 23 82
1981247N16300 1981 75 NA NA FLOYD 1981-09-10 09:00:00 TS 33.8066 -49.9719 main 1449 1443 P_____________ AL141981 33.8066 -49.9719 TS 40 1007 0 22 80
1981247N16300 1981 75 NA NA FLOYD 1981-09-10 12:00:00 TS 34.0000 -48.7000 40 1008 hurdat_atl main 1452 1452 O_____________ hurdat_atl AL141981 34.0000 -48.7000 TS 40 1008 0 20 83
1981247N16300 1981 75 NA NA FLOYD 1981-09-10 15:00:00 TS 34.0432 -47.5268 main 1481 1481 P_____________ AL141981 34.0432 -47.5268 TS 40 1008 0 19 90
1981247N16300 1981 75 NA NA FLOYD 1981-09-10 18:00:00 TS 34.0000 -46.4000 40 1008 hurdat_atl main 1513 1513 O_____________ hurdat_atl AL141981 34.0000 -46.4000 TS 40 1008 0 19 96
1981247N16300 1981 75 NA NA FLOYD 1981-09-10 21:00:00 TS 33.8463 -45.2544 main 1571 1571 P_____________ AL141981 33.8463 -45.2544 TS 40 1008 0 19 96
1981247N16300 1981 75 NA NA FLOYD 1981-09-11 00:00:00 TS 33.8000 -44.1000 40 1008 hurdat_atl main 1616 1616 O_____________ hurdat_atl AL141981 33.8000 -44.1000 TS 40 1008 0 20 84
1981247N16300 1981 75 NA NA FLOYD 1981-09-11 03:00:00 TS 34.0599 -42.8789 main 1637 1637 P_____________ AL141981 34.0599 -42.8789 TS 40 1008 0 21 71
1981247N16300 1981 75 NA NA FLOYD 1981-09-11 06:00:00 TS 34.5000 -41.7000 40 1008 hurdat_atl main 1654 1654 O_____________ hurdat_atl AL141981 34.5000 -41.7000 TS 40 1008 0 21 64
1981247N16300 1981 75 NA NA FLOYD 1981-09-11 09:00:00 TS 34.9694 -40.6249 main 1664 1660 P_____________ AL141981 34.9694 -40.6249 TS 40 1008 0 19 59
1981247N16300 1981 75 NA NA FLOYD 1981-09-11 12:00:00 TS 35.5000 -39.7000 40 1008 hurdat_atl main 1668 1659 O_____________ hurdat_atl AL141981 35.5000 -39.7000 TS 40 1008 0 17 52
1981247N16300 1981 75 NA NA FLOYD 1981-09-11 15:00:00 TS 36.0487 -38.9536 main 1664 1652 P_____________ AL141981 36.0487 -38.9536 TS 40 1008 0 16 46
1981247N16300 1981 75 NA NA FLOYD 1981-09-11 18:00:00 TS 36.6000 -38.3000 40 1008 hurdat_atl main 1656 1653 O_____________ hurdat_atl AL141981 36.6000 -38.3000 TS 40 1008 0 15 46
1981247N16300 1981 75 NA NA FLOYD 1981-09-11 21:00:00 TS 37.0767 -37.6199 main 1660 1658 P_____________ AL141981 37.0767 -37.6199 TS 40 1008 0 15 48
1981247N16300 1981 75 NA NA FLOYD 1981-09-12 00:00:00 TS 37.6000 -36.9000 40 1009 hurdat_atl main 1665 1663 O_____________ hurdat_atl AL141981 37.6000 -36.9000 TS 40 1009 0 17 46
1981247N16300 1981 75 NA NA FLOYD 1981-09-12 03:00:00 TS 38.2547 -36.0791 main 1666 1666 P_____________ AL141981 38.2547 -36.0791 TS 40 1009 0 19 44
1981247N16300 1981 75 NA NA FLOYD 1981-09-12 06:00:00 TS 39.0000 -35.2000 40 1009 hurdat_atl main 1679 1679 O_____________ hurdat_atl AL141981 39.0000 -35.2000 TS 40 1009 0 21 42
1981247N16300 1981 75 NA NA FLOYD 1981-09-12 09:00:00 TS 39.7912 -34.3066 main 1690 1690 P_____________ AL141981 39.7912 -34.3066 TS 37 1009 0 21 41
1981247N16300 1981 75 NA NA FLOYD 1981-09-12 12:00:00 TS 40.6000 -33.4000 35 1009 hurdat_atl main 1704 O_____________ hurdat_atl AL141981 40.6000 -33.4000 TS 35 1009 0 21 40

IBTrACS Databaseについて

本データベースは、米国NOAAが公開する1842年以降の世界の熱帯低気圧のベストトラックデータアーカイブInternational Best Track Archive for Climate Stewardship (IBTrACS)を、ウェブで閲覧しやすい形式に変換したものです。

最終更新日:2021-11-26